createdAt,value
2022-12-08T00:02:05.365Z,11.07
2022-12-08T00:04:53.690Z,5.75
2022-12-08T00:07:39.326Z,8.55
2022-12-08T00:10:32.285Z,5.18
2022-12-08T00:12:57.328Z,10.82
2022-12-08T00:15:25.819Z,6.35
2022-12-08T00:17:55.440Z,5.90
2022-12-08T00:20:23.658Z,8.40
2022-12-08T00:22:51.945Z,6.35
2022-12-08T00:25:20.148Z,7.28
2022-12-08T00:27:48.355Z,6.47
2022-12-08T00:30:16.841Z,6.28
2022-12-08T00:32:45.056Z,4.03
2022-12-08T00:35:15.137Z,7.13
2022-12-08T00:37:43.418Z,6.25
2022-12-08T00:40:12.121Z,5.53
2022-12-08T00:42:40.307Z,9.25
2022-12-08T00:45:09.064Z,6.18
2022-12-08T00:47:37.563Z,6.95
2022-12-08T00:50:06.759Z,5.88
2022-12-08T00:52:37.014Z,5.05
2022-12-08T00:55:06.130Z,5.72
2022-12-08T00:57:34.393Z,5.80
2022-12-08T01:00:03.271Z,6.43
2022-12-08T01:02:33.914Z,6.65
2022-12-08T01:05:02.372Z,5.97
2022-12-08T01:07:30.727Z,5.47
2022-12-08T01:10:00.377Z,6.88
2022-12-08T01:12:30.460Z,8.13
2022-12-08T01:15:02.503Z,6.40
2022-12-08T01:17:31.404Z,6.32
2022-12-08T01:19:59.718Z,10.90
2022-12-08T01:22:27.937Z,5.65
2022-12-08T01:24:56.433Z,7.43
2022-12-08T01:27:26.137Z,9.13
2022-12-08T01:29:55.647Z,6.95
2022-12-08T01:32:24.158Z,8.82
2022-12-08T01:34:52.659Z,13.82
2022-12-08T01:37:20.922Z,9.32
2022-12-08T01:39:49.127Z,6.72
2022-12-08T01:42:22.198Z,8.68
2022-12-08T01:45:03.791Z,6.90
2022-12-08T01:47:39.494Z,7.00
2022-12-08T01:50:12.781Z,3.95
2022-12-08T01:52:45.439Z,5.35
2022-12-08T01:55:18.831Z,6.75
2022-12-08T01:57:50.875Z,5.18
2022-12-08T02:00:23.170Z,6.50
2022-12-08T02:02:56.793Z,5.95
2022-12-08T02:05:28.767Z,6.68
2022-12-08T02:07:58.641Z,5.55
2022-12-08T02:10:31.628Z,6.25
2022-12-08T02:13:01.739Z,6.38
2022-12-08T02:15:38.731Z,4.55
2022-12-08T02:18:24.214Z,5.45
2022-12-08T02:20:59.546Z,5.55
2022-12-08T02:23:38.029Z,9.82
2022-12-08T02:26:30.159Z,6.07
2022-12-08T02:29:38.956Z,6.17
2022-12-08T02:32:29.621Z,6.53
2022-12-08T02:35:04.404Z,6.60
2022-12-08T02:37:37.371Z,10.18
2022-12-08T02:40:14.880Z,7.53
2022-12-08T02:42:47.388Z,6.03
2022-12-08T02:45:18.957Z,6.60
2022-12-08T02:47:48.045Z,6.23
2022-12-08T02:50:17.818Z,4.40
2022-12-08T02:52:47.437Z,4.68
2022-12-08T02:55:27.255Z,8.23
2022-12-08T02:58:30.808Z,4.53
2022-12-08T03:01:16.043Z,4.25
2022-12-08T03:03:53.188Z,9.48
2022-12-08T03:06:30.735Z,8.07
2022-12-08T03:09:05.190Z,7.35
2022-12-08T03:11:41.280Z,7.65
2022-12-08T03:14:13.662Z,5.32
2022-12-08T03:16:46.940Z,5.05
2022-12-08T03:19:20.305Z,8.07
2022-12-08T03:21:53.935Z,5.28
2022-12-08T03:24:24.410Z,4.13
2022-12-08T03:26:57.919Z,4.93
2022-12-08T03:29:26.620Z,4.82
2022-12-08T03:31:58.718Z,5.18
2022-12-08T03:34:30.125Z,4.82
2022-12-08T03:37:02.610Z,4.65
2022-12-08T03:39:31.042Z,7.57
2022-12-08T03:41:59.805Z,6.05
2022-12-08T03:44:28.160Z,4.38
2022-12-08T03:46:56.800Z,5.35
2022-12-08T03:49:25.030Z,4.38
2022-12-08T03:51:53.647Z,3.97
2022-12-08T03:54:24.384Z,5.53
2022-12-08T03:56:53.662Z,3.40
2022-12-08T03:59:21.892Z,6.35
2022-12-08T04:01:50.266Z,3.03
2022-12-08T04:04:19.107Z,12.23
2022-12-08T04:06:47.688Z,2.35
2022-12-08T04:09:16.020Z,2.15
2022-12-08T04:11:45.718Z,2.40
2022-12-08T04:14:14.040Z,2.30
2022-12-08T04:16:44.218Z,3.03
2022-12-08T04:19:12.751Z,1.98
2022-12-08T04:21:41.048Z,3.13
2022-12-08T04:24:10.213Z,6.05
2022-12-08T04:26:38.510Z,1.23
2022-12-08T04:29:08.158Z,2.80
2022-12-08T04:31:36.511Z,2.70
2022-12-08T04:34:04.965Z,5.47
2022-12-08T04:36:33.301Z,3.92
2022-12-08T04:39:01.861Z,3.95
2022-12-08T04:41:30.221Z,3.72
2022-12-08T04:43:58.847Z,3.30
2022-12-08T04:46:28.631Z,3.90
2022-12-08T04:48:57.052Z,3.63
2022-12-08T04:51:25.320Z,2.88
2022-12-08T04:53:53.602Z,3.88
2022-12-08T04:56:21.905Z,9.40
2022-12-08T04:58:50.200Z,9.80
2022-12-08T05:01:18.537Z,95.03
2022-12-08T05:03:48.299Z,111.75
2022-12-08T05:06:16.951Z,191.43
2022-12-08T05:08:45.565Z,83.70
2022-12-08T05:11:14.807Z,97.78
2022-12-08T05:13:43.064Z,51.90
2022-12-08T05:16:13.503Z,28.70
2022-12-08T05:18:43.256Z,32.45
2022-12-08T05:21:13.212Z,34.35
2022-12-08T05:23:41.544Z,52.35
2022-12-08T05:26:10.165Z,26.55
2022-12-08T05:28:41.703Z,74.70
2022-12-08T05:31:11.358Z,31.70
2022-12-08T05:33:39.756Z,74.57
2022-12-08T05:36:08.591Z,50.00
2022-12-08T05:38:38.452Z,82.88
2022-12-08T05:41:08.242Z,121.38
2022-12-08T05:43:38.091Z,135.60
2022-12-08T05:46:06.738Z,80.97
2022-12-08T05:48:35.644Z,81.22
2022-12-08T05:51:04.315Z,56.85
2022-12-08T05:53:32.653Z,93.32
2022-12-08T05:56:02.355Z,33.45
2022-12-08T05:58:30.648Z,17.60
2022-12-08T06:00:59.259Z,21.38
2022-12-08T06:03:28.633Z,23.73
2022-12-08T06:05:56.998Z,12.50
2022-12-08T06:08:25.883Z,7.13
2022-12-08T06:10:54.957Z,42.05
2022-12-08T06:13:25.164Z,14.10
2022-12-08T06:15:53.498Z,16.75
2022-12-08T06:18:21.859Z,11.65
2022-12-08T06:20:50.107Z,5.30
2022-12-08T06:23:18.456Z,8.63
2022-12-08T06:25:46.981Z,4.78
2022-12-08T06:28:15.599Z,8.00
2022-12-08T06:30:45.267Z,3.80
2022-12-08T06:33:13.579Z,5.35
2022-12-08T06:35:41.811Z,3.08
2022-12-08T06:38:10.551Z,3.80
2022-12-08T06:40:38.755Z,2.35
2022-12-08T06:43:07.025Z,2.35
2022-12-08T06:45:35.306Z,8.60
2022-12-08T06:48:05.225Z,14.73
2022-12-08T06:50:35.151Z,9.13
2022-12-08T06:53:05.720Z,14.52
2022-12-08T06:55:57.748Z,11.38
2022-12-08T06:58:23.127Z,16.90
2022-12-08T07:00:51.684Z,5.60
2022-12-08T07:03:21.498Z,3.20
2022-12-08T07:05:50.065Z,2.25
2022-12-08T07:08:18.462Z,4.68
2022-12-08T07:10:46.954Z,3.58
2022-12-08T07:13:15.287Z,3.20
2022-12-08T07:15:43.650Z,3.17
2022-12-08T07:18:11.902Z,1.17
2022-12-08T07:20:41.672Z,0.95
2022-12-08T07:23:10.193Z,1.98
2022-12-08T07:25:38.538Z,0.85
2022-12-08T07:28:11.698Z,1.95
2022-12-08T07:30:40.741Z,2.75
2022-12-08T07:33:09.070Z,4.15
2022-12-08T07:35:45.006Z,1.17
2022-12-08T07:38:18.786Z,4.47
2022-12-08T07:40:47.129Z,4.93
2022-12-08T07:43:15.715Z,2.47
2022-12-08T07:45:46.742Z,2.72
2022-12-08T07:48:15.888Z,1.80
2022-12-08T07:50:47.100Z,6.68
2022-12-08T07:53:15.930Z,2.40
2022-12-08T07:55:45.957Z,6.15
2022-12-08T07:58:15.797Z,4.78
2022-12-08T08:00:44.149Z,2.30
2022-12-08T08:03:13.417Z,2.38
2022-12-08T08:05:42.120Z,2.25
2022-12-08T08:08:10.765Z,2.47
2022-12-08T08:10:39.068Z,4.15
2022-12-08T08:13:09.787Z,3.20
2022-12-08T08:15:38.520Z,4.55
2022-12-08T08:18:06.976Z,3.90
2022-12-08T08:20:35.586Z,5.85
2022-12-08T08:23:03.913Z,8.07
2022-12-08T08:25:32.337Z,6.35
2022-12-08T08:28:00.627Z,13.80
2022-12-08T08:30:30.396Z,8.25
2022-12-08T08:32:58.647Z,9.93
2022-12-08T08:35:26.947Z,7.03
2022-12-08T08:37:55.460Z,15.55
2022-12-08T08:40:24.184Z,9.68
2022-12-08T08:42:52.536Z,8.32
2022-12-08T08:45:20.852Z,11.90
2022-12-08T08:47:50.500Z,9.52
2022-12-08T08:50:18.808Z,12.70
2022-12-08T08:52:47.074Z,3.47
2022-12-08T08:55:15.639Z,5.90
2022-12-08T08:57:44.055Z,4.03
2022-12-08T09:00:13.565Z,2.75
2022-12-08T09:02:42.124Z,2.60
2022-12-08T09:05:13.478Z,2.35
2022-12-08T09:07:41.810Z,3.38
2022-12-08T09:10:11.235Z,2.05
2022-12-08T09:12:39.553Z,4.75
2022-12-08T09:15:08.721Z,3.40
2022-12-08T09:17:37.055Z,3.53
2022-12-08T09:20:06.422Z,4.50
2022-12-08T09:22:37.172Z,4.88
2022-12-08T09:25:06.057Z,3.40
2022-12-08T09:27:34.460Z,3.88
2022-12-08T09:30:03.468Z,4.43
2022-12-08T09:32:31.908Z,1.95
2022-12-08T09:35:00.384Z,4.45
2022-12-08T09:37:28.815Z,2.72
2022-12-08T09:39:58.454Z,3.45
2022-12-08T09:42:35.028Z,6.72
2022-12-08T09:45:07.017Z,4.20
2022-12-08T09:47:40.517Z,3.97
2022-12-08T09:50:15.663Z,1.92
2022-12-08T09:52:48.721Z,1.80
2022-12-08T09:55:25.643Z,3.08
2022-12-08T09:58:02.976Z,3.55
2022-12-08T10:00:32.211Z,1.48
2022-12-08T10:03:01.196Z,1.55
2022-12-08T10:05:34.490Z,1.92
2022-12-08T10:08:10.040Z,5.25
2022-12-08T10:10:43.857Z,4.53
2022-12-08T10:13:21.161Z,1.50
2022-12-08T10:15:59.798Z,5.78
2022-12-08T10:18:31.709Z,4.07
2022-12-08T10:21:12.000Z,2.20
2022-12-08T10:23:42.545Z,10.48
2022-12-08T10:26:14.804Z,3.70
2022-12-08T10:28:45.412Z,1.15
2022-12-08T10:31:18.223Z,2.13
2022-12-08T10:33:49.279Z,1.40
2022-12-08T10:36:17.610Z,1.52
2022-12-08T10:38:45.848Z,1.83
2022-12-08T10:41:18.353Z,2.17
2022-12-08T10:46:21.386Z,1.77
2022-12-08T10:48:53.162Z,4.15
2022-12-08T10:51:28.581Z,5.22
2022-12-08T10:53:57.226Z,1.90
2022-12-08T10:56:29.717Z,2.38
2022-12-08T10:59:15.382Z,2.90
2022-12-08T11:01:47.947Z,2.70
2022-12-08T11:04:19.888Z,2.63
2022-12-08T11:06:49.615Z,5.85
2022-12-08T11:09:38.470Z,1.98
2022-12-08T11:12:15.628Z,2.72
2022-12-08T11:14:51.928Z,2.63
2022-12-08T11:17:27.695Z,1.88
2022-12-08T11:20:01.479Z,1.95
2022-12-08T11:22:33.288Z,1.73
2022-12-08T11:25:04.190Z,1.95
2022-12-08T11:27:36.746Z,0.38
2022-12-08T11:32:44.788Z,4.07
2022-12-08T11:35:21.952Z,1.92
2022-12-08T11:37:50.409Z,1.75
2022-12-08T11:40:24.525Z,4.05
2022-12-08T11:43:10.013Z,1.17
2022-12-08T11:45:38.360Z,1.98
2022-12-08T11:48:15.717Z,1.25
2022-12-08T11:50:50.798Z,0.90
2022-12-08T11:53:29.078Z,3.30
2022-12-08T11:56:01.820Z,3.10
2022-12-08T11:58:39.528Z,2.88
2022-12-08T12:01:18.046Z,0.70
2022-12-08T12:03:51.778Z,1.42
2022-12-08T12:06:57.573Z,0.63
2022-12-08T12:09:39.139Z,0.50
2022-12-08T12:12:16.731Z,1.15
2022-12-08T12:15:11.588Z,1.40
2022-12-08T12:17:44.823Z,1.20
2022-12-08T12:20:18.791Z,0.75
2022-12-08T12:22:53.255Z,1.67
2022-12-08T12:25:24.203Z,0.52
2022-12-08T12:27:57.585Z,1.35
2022-12-08T12:30:29.681Z,2.35
2022-12-08T12:33:01.201Z,2.05
2022-12-08T12:35:35.813Z,1.63
2022-12-08T12:38:28.640Z,7.43
2022-12-08T12:43:33.687Z,0.68
2022-12-08T12:46:41.455Z,2.03
2022-12-08T12:49:54.443Z,0.60
2022-12-08T12:52:43.098Z,0.25
2022-12-08T12:55:52.478Z,0.85
2022-12-08T12:58:37.017Z,2.10
2022-12-08T13:01:47.659Z,1.13
2022-12-08T13:04:16.484Z,1.17
2022-12-08T13:06:49.901Z,0.90
2022-12-08T13:09:25.031Z,4.10
2022-12-08T13:11:57.004Z,1.52
2022-12-08T13:14:30.815Z,2.22
2022-12-08T13:17:02.769Z,2.35
2022-12-08T13:19:34.065Z,1.60
2022-12-08T13:22:02.900Z,0.82
2022-12-08T13:24:36.399Z,0.47
2022-12-08T13:27:36.242Z,0.65
2022-12-08T13:30:41.586Z,1.35
2022-12-08T13:33:18.964Z,4.18
2022-12-08T13:35:57.926Z,2.30
2022-12-08T13:38:31.355Z,0.80
2022-12-08T13:41:04.219Z,1.65
2022-12-08T13:43:51.292Z,0.82
2022-12-08T13:54:16.459Z,0.13
2022-12-08T13:56:51.414Z,5.90
2022-12-08T13:58:19.300Z,0.57
2022-12-08T14:00:58.804Z,1.48
2022-12-08T14:03:27.685Z,0.82
2022-12-08T14:06:13.563Z,0.90
2022-12-08T14:09:05.273Z,2.92
2022-12-08T14:11:37.343Z,1.17
2022-12-08T14:16:39.864Z,3.97
2022-12-08T14:19:18.001Z,1.08
2022-12-08T14:21:55.027Z,0.82
2022-12-08T14:24:24.500Z,3.83
2022-12-08T14:26:55.600Z,1.30
2022-12-08T14:29:39.568Z,1.80
2022-12-08T14:32:21.677Z,0.55
2022-12-08T14:34:56.656Z,0.47
2022-12-08T14:37:28.150Z,2.17
2022-12-08T14:40:01.979Z,1.40
2022-12-08T14:42:31.973Z,0.55
2022-12-08T14:45:05.421Z,1.02
2022-12-08T14:47:35.528Z,0.45
2022-12-08T14:50:06.731Z,0.13
2022-12-08T14:52:44.708Z,1.38
2022-12-08T14:55:16.755Z,0.52
2022-12-08T14:57:45.098Z,3.40
2022-12-08T15:00:22.060Z,0.25
2022-12-08T15:02:50.503Z,4.22
2022-12-08T15:05:22.035Z,1.70
2022-12-08T15:07:53.950Z,0.00
2022-12-08T15:10:29.102Z,9.10
2022-12-08T15:13:07.581Z,2.55
2022-12-08T15:15:50.818Z,0.32
2022-12-08T15:18:20.918Z,1.38
2022-12-08T15:20:52.917Z,0.28
2022-12-08T15:23:26.947Z,0.10
2022-12-08T15:25:55.917Z,0.93
2022-12-08T15:28:29.636Z,1.13
2022-12-08T15:31:00.294Z,1.40
2022-12-08T15:33:29.008Z,0.90
2022-12-08T15:35:57.338Z,0.80
2022-12-08T15:38:29.720Z,0.95
2022-12-08T15:40:59.207Z,2.22
2022-12-08T15:43:27.924Z,0.35
2022-12-08T15:45:59.856Z,2.05
2022-12-08T15:48:30.139Z,2.78
2022-12-08T15:50:58.783Z,0.65
2022-12-08T15:53:29.857Z,4.22
2022-12-08T15:56:26.321Z,0.77
2022-12-08T15:58:55.567Z,2.65
2022-12-08T16:01:24.818Z,1.48
2022-12-08T16:04:37.233Z,0.43
2022-12-08T16:07:19.612Z,4.32
2022-12-08T16:09:38.516Z,5.47
2022-12-08T16:12:25.300Z,0.65
2022-12-08T16:17:42.882Z,1.75
2022-12-08T16:20:15.512Z,2.08
2022-12-08T16:22:56.403Z,2.60
2022-12-08T16:25:52.821Z,0.30
2022-12-08T16:28:52.817Z,0.60
2022-12-08T16:31:16.677Z,1.23
2022-12-08T16:33:48.143Z,0.52
2022-12-08T16:36:16.402Z,2.88
2022-12-08T16:38:44.824Z,1.00
2022-12-08T16:41:33.841Z,0.43
2022-12-08T16:44:03.616Z,1.23
2022-12-08T16:46:34.088Z,2.92
2022-12-08T16:49:02.578Z,1.27
2022-12-08T16:51:30.898Z,3.35
2022-12-08T16:54:00.083Z,3.97
2022-12-08T16:56:33.076Z,0.80
2022-12-08T16:59:03.060Z,5.95
2022-12-08T17:01:32.196Z,2.28
2022-12-08T17:04:30.472Z,6.63
2022-12-08T17:06:51.071Z,29.50
2022-12-08T17:09:20.549Z,56.08
2022-12-08T17:11:50.333Z,80.40
2022-12-08T17:14:18.728Z,31.40
2022-12-08T17:16:47.143Z,28.58
2022-12-08T17:19:16.079Z,7.68
2022-12-08T17:21:45.301Z,9.50
2022-12-08T17:24:17.125Z,26.42
2022-12-08T17:26:50.197Z,27.77
2022-12-08T17:29:18.884Z,24.38
2022-12-08T17:31:47.474Z,39.55
2022-12-08T17:34:18.209Z,22.25
2022-12-08T17:36:46.668Z,30.80
2022-12-08T17:39:18.825Z,43.28
2022-12-08T17:44:18.940Z,40.63
2022-12-08T17:46:52.499Z,30.35
2022-12-08T17:49:24.607Z,26.90
2022-12-08T17:51:56.554Z,27.50
2022-12-08T17:54:25.485Z,9.07
2022-12-08T17:56:54.250Z,9.68
2022-12-08T17:59:24.065Z,10.63
2022-12-08T18:01:53.986Z,10.52
2022-12-08T18:04:22.780Z,10.63
2022-12-08T18:06:51.120Z,1.42
2022-12-08T18:09:20.247Z,2.17
2022-12-08T18:11:48.900Z,2.72
2022-12-08T18:14:17.696Z,2.97
2022-12-08T18:16:48.145Z,4.43
2022-12-08T18:19:17.223Z,1.60
2022-12-08T18:21:45.902Z,4.30
2022-12-08T18:24:19.686Z,3.67
2022-12-08T18:26:48.463Z,2.70
2022-12-08T18:29:16.864Z,3.47
2022-12-08T18:31:46.697Z,10.73
2022-12-08T18:34:15.163Z,5.38
2022-12-08T18:36:43.595Z,3.55
2022-12-08T18:39:23.352Z,2.47
2022-12-08T18:41:51.799Z,2.55
2022-12-08T18:44:20.742Z,2.85
2022-12-08T18:46:50.702Z,14.75
2022-12-08T18:49:20.792Z,9.85
2022-12-08T18:51:49.285Z,26.42
2022-12-08T18:54:17.707Z,24.35
2022-12-08T18:56:46.104Z,17.38
2022-12-08T18:59:14.882Z,11.23
2022-12-08T19:01:43.692Z,5.80
2022-12-08T19:04:28.278Z,2.92
2022-12-08T19:06:58.792Z,8.25
2022-12-08T19:09:29.136Z,4.18
2022-12-08T19:11:58.606Z,3.03
2022-12-08T19:14:28.433Z,3.33
2022-12-08T19:16:57.891Z,7.35
2022-12-08T19:19:28.287Z,3.78
2022-12-08T19:21:57.159Z,5.25
2022-12-08T19:24:26.012Z,2.35
2022-12-08T19:26:54.435Z,2.70
2022-12-08T19:29:22.831Z,5.35
2022-12-08T19:31:51.288Z,14.05
2022-12-08T19:34:20.115Z,15.95
2022-12-08T19:36:50.105Z,10.70
2022-12-08T19:39:37.361Z,18.08
2022-12-08T19:42:24.606Z,17.55
2022-12-08T19:44:55.654Z,11.45
2022-12-08T19:47:25.699Z,10.70
2022-12-08T19:49:54.969Z,5.35
2022-12-08T19:52:24.987Z,5.43
2022-12-08T19:54:53.341Z,5.85
2022-12-08T19:57:22.195Z,6.25
2022-12-08T20:00:03.537Z,6.45
2022-12-08T20:02:38.342Z,6.07
2022-12-08T20:05:07.678Z,3.08
2022-12-08T20:07:37.674Z,3.65
2022-12-08T20:10:08.037Z,3.83
2022-12-08T20:12:36.730Z,2.97
2022-12-08T20:15:05.618Z,11.20
2022-12-08T20:17:33.994Z,6.45
2022-12-08T20:20:06.807Z,8.48
2022-12-08T20:22:37.736Z,5.07
2022-12-08T20:25:06.658Z,3.42
2022-12-08T20:27:35.029Z,11.38
2022-12-08T20:30:03.458Z,14.38
2022-12-08T20:32:31.832Z,19.88
2022-12-08T20:35:00.307Z,49.78
2022-12-08T20:37:28.638Z,42.13
2022-12-08T20:39:58.456Z,27.30
2022-12-08T20:42:26.901Z,33.65
2022-12-08T20:44:55.700Z,17.95
2022-12-08T20:47:24.069Z,13.07
2022-12-08T20:49:52.456Z,10.63
2022-12-08T20:52:20.812Z,19.38
2022-12-08T20:54:51.415Z,4.50
2022-12-08T20:57:22.432Z,12.20
2022-12-08T20:59:50.875Z,9.75
2022-12-08T21:02:19.374Z,17.10
2022-12-08T21:04:50.431Z,17.42
2022-12-08T21:07:19.167Z,36.78
2022-12-08T21:09:47.627Z,39.58
2022-12-08T21:12:16.238Z,38.72
2022-12-08T21:14:46.336Z,40.42
2022-12-08T21:17:15.707Z,42.97
2022-12-08T21:19:44.837Z,22.52
2022-12-08T21:22:14.345Z,22.25
2022-12-08T21:24:43.598Z,9.18
2022-12-08T21:27:11.992Z,5.38
2022-12-08T21:29:40.541Z,5.38
2022-12-08T21:32:10.458Z,1.70
2022-12-08T21:34:38.949Z,4.22
2022-12-08T21:37:07.479Z,8.40
2022-12-08T21:39:37.668Z,6.13
2022-12-08T21:42:24.298Z,4.35
2022-12-08T21:44:55.751Z,7.05
2022-12-08T21:47:25.678Z,9.43
2022-12-08T21:49:54.181Z,3.78
2022-12-08T21:52:23.616Z,2.95
2022-12-08T21:54:52.792Z,2.50
2022-12-08T21:57:21.539Z,0.77
2022-12-08T21:59:50.621Z,1.80
2022-12-08T22:02:22.663Z,1.63
2022-12-08T22:07:22.509Z,1.80
2022-12-08T22:09:51.871Z,3.53
2022-12-08T22:12:20.580Z,4.93
2022-12-08T22:14:51.072Z,5.15
2022-12-08T22:17:20.229Z,4.45
2022-12-08T22:19:50.467Z,4.07
2022-12-08T22:22:20.782Z,2.88
2022-12-08T22:24:49.380Z,1.55
2022-12-08T22:27:17.776Z,3.33
2022-12-08T22:29:48.007Z,4.38
2022-12-08T22:32:16.636Z,3.70
2022-12-08T22:34:45.132Z,4.32
2022-12-08T22:37:13.813Z,6.13
2022-12-08T22:39:44.995Z,2.50
2022-12-08T22:42:13.538Z,2.33
2022-12-08T22:44:42.391Z,3.03
2022-12-08T22:47:10.926Z,5.43
2022-12-08T22:49:39.392Z,3.15
2022-12-08T22:52:07.963Z,5.25
2022-12-08T22:54:37.560Z,4.38
2022-12-08T22:57:07.367Z,4.63
2022-12-08T22:59:36.150Z,3.53
2022-12-08T23:02:04.593Z,3.97
2022-12-08T23:04:33.010Z,2.53
2022-12-08T23:07:01.776Z,4.00
2022-12-08T23:09:31.227Z,2.97
2022-12-08T23:11:59.576Z,2.97
2022-12-08T23:14:29.519Z,3.97
2022-12-08T23:16:58.024Z,3.17
2022-12-08T23:19:26.372Z,5.65
2022-12-08T23:21:56.446Z,2.92
2022-12-08T23:24:25.432Z,4.18
2022-12-08T23:26:53.756Z,3.75
2022-12-08T23:29:22.133Z,3.55
2022-12-08T23:31:52.113Z,5.25
2022-12-08T23:34:21.366Z,3.70
2022-12-08T23:36:49.863Z,2.92
2022-12-08T23:39:18.315Z,2.47
2022-12-08T23:41:48.043Z,2.38
2022-12-08T23:44:16.438Z,3.67
2022-12-08T23:46:45.540Z,2.00
2022-12-08T23:49:15.981Z,3.22
2022-12-08T23:51:46.374Z,3.47
2022-12-08T23:54:14.698Z,3.17
2022-12-08T23:56:43.285Z,3.20
2022-12-08T23:59:11.947Z,1.80
